Time;durP1;ratioP1;P1;durP2;ratioP2;P2;SDS_P1;SDS_P2;PMS_P1;PMS_P2;Temp;Humidity;BMP_temperature;BMP_pressure;BME280_temperature;BME280_humidity;BME280_pressure;Samples;Min_cycle;Max_cycle;Signal;HPM_P1;HPM_P2
2022/08/20 00:00:27;;;;;;;;;3.75;3.75;;;;;20.83;68.96;101575.50;4906708;29;8840;-66
2022/08/20 00:03:00;;;;;;;;;3.25;3.25;;;;;20.80;68.85;101571.34;4908675;29;8974;-66
2022/08/20 00:05:34;;;;;;;;;3.00;3.00;;;;;20.80;68.94;101565.03;4898042;29;8969;-67
2022/08/20 00:08:02;;;;;;;;;3.00;3.00;;;;;20.81;68.60;101562.03;4907653;29;8936;-66
2022/08/20 00:10:31;;;;;;;;;2.00;2.00;;;;;20.80;68.73;101557.66;4909106;29;8847;-66
2022/08/20 00:12:57;;;;;;;;;3.00;3.00;;;;;20.81;68.40;101563.94;4905276;29;8981;-66
2022/08/20 00:15:30;;;;;;;;;3.00;2.25;;;;;20.83;68.33;101564.56;4905412;29;8843;-66
2022/08/20 00:17:57;;;;;;;;;3.25;3.25;;;;;20.84;68.21;101566.22;4925612;29;8844;-66
2022/08/20 00:20:34;;;;;;;;;3.50;3.50;;;;;20.87;67.98;101569.28;4908942;29;8832;-66
2022/08/20 00:23:01;;;;;;;;;3.25;3.25;;;;;20.89;68.06;101571.78;4914023;29;8959;-66
2022/08/20 00:25:31;;;;;;;;;3.25;3.25;;;;;20.90;67.86;101576.16;4908768;29;8895;-66
2022/08/20 00:27:58;;;;;;;;;3.25;3.00;;;;;20.90;67.83;101579.75;4912097;29;8944;-66
2022/08/20 00:30:26;;;;;;;;;2.00;2.00;;;;;20.92;67.85;101579.50;4905363;29;8868;-66
2022/08/20 00:32:57;;;;;;;;;6.50;6.00;;;;;20.90;67.71;101581.63;4923823;29;8852;-66
2022/08/20 00:35:27;;;;;;;;;2.00;2.00;;;;;20.87;67.58;101576.66;4900923;29;8954;-66
2022/08/20 00:37:54;;;;;;;;;4.00;3.50;;;;;20.85;67.49;101573.34;4907947;29;8860;-66
2022/08/20 00:40:30;;;;;;;;;3.00;2.00;;;;;20.86;67.57;101575.00;4904081;29;8860;-66
2022/08/20 00:43:00;;;;;;;;;3.50;3.00;;;;;20.86;67.46;101577.72;4906998;29;8938;-66
2022/08/20 00:45:30;;;;;;;;;4.25;3.00;;;;;20.83;67.29;101576.31;4903869;29;8883;-66
2022/08/20 00:47:56;;;;;;;;;2.25;2.25;;;;;20.82;67.35;101569.16;4923134;29;8860;-66
2022/08/20 00:50:31;;;;;;;;;3.00;2.00;;;;;20.80;67.66;101575.97;4897316;29;8869;-66
2022/08/20 00:52:58;;;;;;;;;3.25;3.25;;;;;20.80;67.55;101570.50;4911708;29;9729;-67
2022/08/20 00:55:25;;;;;;;;;4.75;4.00;;;;;20.79;67.00;101574.34;4908511;29;8833;-66
2022/08/20 00:58:01;;;;;;;;;2.75;2.75;;;;;20.77;67.22;101568.25;4909479;29;8878;-66
2022/08/20 01:00:33;;;;;;;;;2.00;2.00;;;;;20.79;67.05;101574.34;4922627;29;8813;-66
2022/08/20 01:03:00;;;;;;;;;3.00;3.00;;;;;20.78;66.69;101578.13;4906283;29;8886;-66
2022/08/20 01:05:28;;;;;;;;;4.00;3.00;;;;;20.78;66.81;101578.13;4904997;29;8827;-66
2022/08/20 01:07:56;;;;;;;;;2.50;2.00;;;;;20.75;66.57;101573.97;4907477;29;8951;-66
2022/08/20 01:10:26;;;;;;;;;3.00;3.00;;;;;20.74;66.06;101566.81;4907439;29;11683;-65
2022/08/20 01:12:57;;;;;;;;;2.25;2.00;;;;;20.68;66.00;101565.91;4925171;29;8856;-66
2022/08/20 01:15:28;;;;;;;;;3.75;2.75;;;;;20.69;65.62;101564.81;4903663;29;8954;-65
2022/08/20 01:17:59;;;;;;;;;4.00;3.00;;;;;20.71;65.75;101561.88;4905164;29;8849;-66
2022/08/20 01:20:51;;;;;;;;;3.00;3.00;;;;;20.72;65.55;101572.56;4905224;29;8855;-66
2022/08/20 01:23:35;;;;;;;;;5.50;3.50;;;;;20.69;65.34;101567.56;4904280;29;9559;-66
2022/08/20 01:26:08;;;;;;;;;1.25;1.25;;;;;20.69;65.44;101564.00;4904630;29;8882;-65
2022/08/20 01:28:40;;;;;;;;;3.25;2.00;;;;;20.70;65.13;101569.25;4905837;29;8991;-65
2022/08/20 01:31:10;;;;;;;;;3.75;3.75;;;;;20.73;64.87;101584.31;4898723;29;8843;-65
2022/08/20 01:33:37;;;;;;;;;1.00;1.00;;;;;20.74;64.96;101581.38;4898841;29;8887;-65
2022/08/20 01:36:05;;;;;;;;;1.50;1.50;;;;;20.76;64.49;101581.09;4909409;29;8974;-66
2022/08/20 01:38:33;;;;;;;;;1.75;1.75;;;;;20.78;64.17;101589.88;4908266;29;8885;-66
2022/08/20 01:41:24;;;;;;;;;2.00;2.00;;;;;20.74;63.78;101578.63;4907952;29;8979;-66
2022/08/20 01:43:55;;;;;;;;;2.50;2.50;;;;;20.73;63.52;101576.94;4905720;29;8898;-66
2022/08/20 01:46:27;;;;;;;;;1.50;1.50;;;;;20.73;63.23;101587.88;4904324;29;8851;-65
2022/08/20 01:48:55;;;;;;;;;2.75;2.75;;;;;20.71;62.96;101576.38;4899587;29;8839;-66
2022/08/20 01:51:26;;;;;;;;;1.25;1.25;;;;;20.72;62.82;101583.50;4914781;29;8927;-66
2022/08/20 01:53:55;;;;;;;;;2.00;2.00;;;;;20.72;62.21;101579.94;4913764;29;8959;-65
2022/08/20 01:56:26;;;;;;;;;2.00;2.00;;;;;20.71;61.81;101584.59;4911143;29;8888;-65
2022/08/20 01:58:55;;;;;;;;;1.00;1.00;;;;;20.72;61.42;101580.75;4907178;29;8866;-66
2022/08/20 02:01:29;;;;;;;;;0.00;0.00;;;;;20.71;61.28;101581.84;4908166;29;8866;-66
2022/08/20 02:03:55;;;;;;;;;2.00;1.75;;;;;20.69;60.83;101569.47;4913236;29;8856;-66
2022/08/20 02:06:24;;;;;;;;;1.50;1.50;;;;;20.70;60.52;101579.34;4912716;29;9564;-66
2022/08/20 02:08:54;;;;;;;;;2.25;2.25;;;;;20.70;60.56;101576.59;4909944;29;8841;-66
2022/08/20 02:11:22;;;;;;;;;1.25;1.25;;;;;20.69;60.50;101583.16;4910785;29;8932;-65
2022/08/20 02:13:51;;;;;;;;;2.00;2.00;;;;;20.67;60.46;101585.31;4906181;29;8915;-66
2022/08/20 02:16:20;;;;;;;;;2.00;2.00;;;;;20.64;60.11;101591.28;4911006;29;8825;-65
2022/08/20 02:18:53;;;;;;;;;2.00;2.00;;;;;20.63;59.90;101584.97;4910821;29;9622;-66
2022/08/20 02:21:22;;;;;;;;;1.25;1.25;;;;;20.63;60.03;101589.59;4908377;29;8847;-65
2022/08/20 02:23:48;;;;;;;;;1.75;1.75;;;;;20.64;60.35;101586.63;4906190;29;8849;-66
2022/08/20 02:26:17;;;;;;;;;1.00;1.00;;;;;20.63;60.23;101587.69;4907356;29;8867;-66
2022/08/20 02:28:49;;;;;;;;;3.00;1.75;;;;;20.62;60.16;101583.31;4906473;29;8879;-66
2022/08/20 02:31:17;;;;;;;;;0.50;0.50;;;;;20.60;59.92;101577.25;4906936;29;8871;-66
2022/08/20 02:33:44;;;;;;;;;2.00;1.00;;;;;20.59;60.14;101577.50;4906822;29;8847;-66
2022/08/20 02:36:31;;;;;;;;;2.00;2.00;;;;;20.55;59.95;101576.31;4903987;29;8833;-68
2022/08/20 02:38:58;;;;;;;;;1.00;1.00;;;;;20.53;59.47;101583.91;4911601;29;9542;-65
2022/08/20 02:41:24;;;;;;;;;3.00;2.00;;;;;20.52;59.00;101593.22;4904111;29;8924;-68
2022/08/20 02:43:51;;;;;;;;;0.00;0.00;;;;;20.51;58.82;101584.19;4907153;29;8876;-65
2022/08/20 02:46:18;;;;;;;;;2.00;2.00;;;;;20.51;58.86;101583.34;4909328;29;8848;-65
2022/08/20 02:48:44;;;;;;;;;1.00;1.00;;;;;20.46;58.58;101590.34;4903684;29;9081;-65
2022/08/20 02:51:11;;;;;;;;;2.50;2.50;;;;;20.45;58.14;101583.19;4914905;29;8836;-66
2022/08/20 02:53:43;;;;;;;;;0.50;0.50;;;;;20.45;58.19;101585.09;4909976;29;9014;-66
2022/08/20 02:56:10;;;;;;;;;2.25;1.00;;;;;20.43;58.41;101587.25;4909529;29;8840;-66
2022/08/20 02:58:38;;;;;;;;;0.25;0.25;;;;;20.41;58.23;101579.28;4904017;29;8871;-66
2022/08/20 03:01:08;;;;;;;;;2.75;2.25;;;;;20.40;58.25;101579.53;4907960;29;8880;-66
2022/08/20 03:03:34;;;;;;;;;2.50;2.00;;;;;20.39;58.33;101581.44;4908607;29;8890;-65
2022/08/20 03:06:01;;;;;;;;;0.50;0.50;;;;;20.38;58.29;101578.97;4907351;29;8851;-65
2022/08/20 03:08:28;;;;;;;;;1.50;1.50;;;;;20.37;58.11;101578.09;4909374;29;8897;-65
2022/08/20 03:10:55;;;;;;;;;2.00;2.00;;;;;20.35;57.94;101580.25;4903887;29;8835;-65
2022/08/20 03:13:23;;;;;;;;;2.00;2.00;;;;;20.31;57.91;101581.81;4912618;29;8908;-65
2022/08/20 03:15:53;;;;;;;;;2.25;2.25;;;;;20.29;58.09;101592.13;4910021;29;8920;-65
2022/08/20 03:18:27;;;;;;;;;3.00;2.00;;;;;20.23;58.22;101591.22;4901185;29;8851;-65
2022/08/20 03:20:54;;;;;;;;;1.25;1.25;;;;;20.19;58.51;101591.94;4912590;29;9613;-65
2022/08/20 03:23:21;;;;;;;;;2.75;2.75;;;;;20.15;58.50;101588.03;4908099;29;8998;-65
2022/08/20 03:25:48;;;;;;;;;1.00;1.00;;;;;20.11;59.04;101587.66;4908879;29;8856;-65
2022/08/20 03:28:15;;;;;;;;;3.00;1.25;;;;;20.09;59.03;101587.06;4906185;29;9709;-66
2022/08/20 03:30:42;;;;;;;;;1.25;1.25;;;;;20.05;59.22;101588.59;4915977;29;8916;-65
2022/08/20 03:33:09;;;;;;;;;2.00;1.25;;;;;20.02;59.24;101594.56;4908831;29;8847;-65
2022/08/20 03:35:37;;;;;;;;;1.75;1.75;;;;;20.02;59.28;101591.84;4902520;29;8840;-66
2022/08/20 03:38:09;;;;;;;;;2.00;2.00;;;;;20.02;59.04;101588.28;4915623;29;8905;-66
2022/08/20 03:40:37;;;;;;;;;0.75;0.75;;;;;20.02;58.90;101585.56;4901195;29;8864;-66
2022/08/20 03:43:07;;;;;;;;;3.25;2.50;;;;;20.03;58.89;101587.19;4908888;29;8876;-65
2022/08/20 03:45:36;;;;;;;;;1.75;1.75;;;;;20.03;59.04;101584.47;4906688;29;8931;-67
2022/08/20 03:48:06;;;;;;;;;5.25;3.00;;;;;20.01;59.05;101584.69;4900381;29;8924;-65
2022/08/20 03:50:34;;;;;;;;;2.00;2.00;;;;;20.00;59.11;101588.50;4900002;29;8923;-66
2022/08/20 03:53:00;;;;;;;;;4.00;1.25;;;;;19.99;59.11;101598.59;4910550;29;8947;-66
2022/08/20 03:55:29;;;;;;;;;2.25;2.00;;;;;19.99;59.34;101595.03;4903601;29;8903;-66
2022/08/20 03:58:01;;;;;;;;;2.25;2.00;;;;;19.98;59.39;101598.84;4907262;29;8869;-66
2022/08/20 04:00:38;;;;;;;;;2.50;2.25;;;;;19.96;59.50;101598.25;4907791;29;8868;-66
2022/08/20 04:03:05;;;;;;;;;1.75;1.00;;;;;19.93;59.67;101599.56;4912077;29;8882;-65
2022/08/20 04:05:33;;;;;;;;;2.00;1.25;;;;;19.93;59.77;101598.72;4907603;29;8866;-65
2022/08/20 04:08:02;;;;;;;;;2.00;2.00;;;;;19.93;59.77;101605.03;4905162;29;8851;-66
2022/08/20 04:10:30;;;;;;;;;1.00;1.00;;;;;19.93;59.91;101605.03;4907163;29;8836;-66
2022/08/20 04:12:57;;;;;;;;;2.25;2.25;;;;;19.95;59.84;101607.53;4914589;29;9006;-65
2022/08/20 04:15:25;;;;;;;;;1.25;1.25;;;;;19.95;59.68;101602.88;4905839;29;8860;-66
2022/08/20 04:17:52;;;;;;;;;1.00;1.00;;;;;19.96;59.40;101606.44;4914514;29;8841;-68
2022/08/20 04:20:24;;;;;;;;;1.25;1.25;;;;;19.94;59.44;101605.88;4902018;29;8886;-68
2022/08/20 04:22:53;;;;;;;;;1.75;1.75;;;;;19.92;59.16;101606.09;4909644;29;8845;-66
2022/08/20 04:25:30;;;;;;;;;6.00;2.00;;;;;19.92;59.00;101613.47;4904257;29;8849;-66
2022/08/20 04:28:05;;;;;;;;;1.50;1.50;;;;;19.90;59.25;101610.16;4905245;29;8881;-65
2022/08/20 04:30:32;;;;;;;;;2.75;2.25;;;;;19.88;59.28;101613.09;4907908;29;8875;-66
2022/08/20 04:32:59;;;;;;;;;3.00;1.25;;;;;19.87;59.34;101608.72;4907938;29;8837;-66
2022/08/20 04:35:27;;;;;;;;;2.50;2.50;;;;;19.85;59.25;101613.59;4904213;29;8927;-65
2022/08/20 04:38:05;;;;;;;;;1.75;1.75;;;;;19.84;59.10;101611.06;4900655;29;9029;-65
2022/08/20 04:40:52;;;;;;;;;2.00;2.00;;;;;19.79;59.23;101608.22;4908557;29;8958;-65
2022/08/20 04:43:22;;;;;;;;;2.00;2.00;;;;;19.74;59.36;101612.50;4911697;29;8910;-66
2022/08/20 04:45:50;;;;;;;;;4.00;2.50;;;;;19.71;59.78;101614.88;4910125;29;8915;-66
2022/08/20 04:48:19;;;;;;;;;2.00;2.00;;;;;19.67;59.44;101621.88;4901993;29;8948;-65
2022/08/20 04:50:45;;;;;;;;;1.50;1.50;;;;;19.64;59.39;101623.16;4909297;29;8849;-66
2022/08/20 04:53:16;;;;;;;;;2.25;2.25;;;;;19.60;59.75;101632.03;4906266;29;8866;-66
2022/08/20 04:55:44;;;;;;;;;4.00;3.00;;;;;19.54;60.09;101633.81;4904482;29;8915;-67
2022/08/20 04:58:17;;;;;;;;;4.00;3.00;;;;;19.50;60.45;101638.09;4900914;29;8911;-66
2022/08/20 05:00:48;;;;;;;;;2.00;2.00;;;;;19.46;60.81;101639.63;4905214;29;8878;-66
2022/08/20 05:03:16;;;;;;;;;3.00;3.00;;;;;19.44;60.59;101637.09;4904304;29;8888;-66
2022/08/20 05:05:44;;;;;;;;;5.75;3.00;;;;;19.41;60.64;101639.50;4907994;29;8859;-66
2022/08/20 05:08:11;;;;;;;;;2.00;2.00;;;;;19.38;60.70;101635.34;4911824;29;9606;-65
2022/08/20 05:10:46;;;;;;;;;3.75;2.00;;;;;19.36;61.23;101651.09;4906333;29;9584;-66
2022/08/20 05:13:12;;;;;;;;;3.50;3.00;;;;;19.34;61.16;101646.94;4911819;29;8837;-66
2022/08/20 05:15:39;;;;;;;;;2.75;2.00;;;;;19.32;60.96;101649.06;4905179;29;8920;-66
2022/08/20 05:18:07;;;;;;;;;5.00;4.75;;;;;19.30;61.10;101649.31;4904599;29;8877;-66
2022/08/20 05:20:38;;;;;;;;;2.75;2.75;;;;;19.28;61.06;101651.44;4906302;29;9412;-66
2022/08/20 05:23:08;;;;;;;;;4.50;4.00;;;;;19.25;61.34;101652.75;4912016;29;8951;-65
2022/08/20 05:25:35;;;;;;;;;4.00;4.00;;;;;19.23;61.42;101652.13;4907064;29;8872;-66
2022/08/20 05:28:08;;;;;;;;;2.50;2.50;;;;;19.24;61.16;101659.28;4907692;29;8835;-66
2022/08/20 05:30:36;;;;;;;;;3.00;3.00;;;;;19.24;61.32;101651.09;4910619;29;8977;-65
2022/08/20 05:33:05;;;;;;;;;3.00;2.75;;;;;19.24;61.36;101650.22;4912335;29;8853;-65
2022/08/20 05:35:34;;;;;;;;;1.00;1.00;;;;;19.26;61.50;101656.31;4911258;29;8836;-66
2022/08/20 05:38:01;;;;;;;;;2.00;2.00;;;;;19.24;61.15;101655.69;4917175;29;8828;-65
2022/08/20 05:40:27;;;;;;;;;2.00;2.00;;;;;19.25;60.69;101658.19;4910950;29;8876;-65
2022/08/20 05:42:54;;;;;;;;;3.25;3.00;;;;;19.24;60.07;101662.00;4935468;23;8932;-66
2022/08/20 05:45:21;;;;;;;;;2.25;2.00;;;;;19.27;60.05;101663.41;4927495;29;8846;-67
2022/08/20 05:47:47;;;;;;;;;3.00;1.00;;;;;19.27;59.93;101658.78;4927677;29;9793;-67
2022/08/20 05:50:22;;;;;;;;;1.50;1.50;;;;;19.31;59.82;101663.78;4926542;29;8858;-66
2022/08/20 05:52:49;;;;;;;;;3.00;3.00;;;;;19.31;59.64;101661.06;4922177;29;8869;-66
2022/08/20 05:55:15;;;;;;;;;3.75;2.00;;;;;19.34;59.76;101671.53;4906264;29;8901;-67
2022/08/20 05:57:42;;;;;;;;;2.00;2.00;;;;;19.36;59.79;101675.66;4911576;29;8955;-67
2022/08/20 06:00:12;;;;;;;;;3.00;3.00;;;;;19.36;59.65;101667.47;4913590;29;8848;-67
2022/08/20 06:05:24;;;;;;;;;2.50;2.50;;;;;19.42;59.30;101671.19;4900724;29;8904;-66
2022/08/20 06:07:52;;;;;;;;;2.00;2.00;;;;;19.44;59.09;101671.78;4915454;29;8976;-67
2022/08/20 06:10:20;;;;;;;;;1.00;1.00;;;;;19.49;59.32;101674.66;4914204;29;8971;-67
2022/08/20 06:12:46;;;;;;;;;1.00;1.00;;;;;19.53;59.45;101670.41;4907672;29;8954;-66
2022/08/20 06:15:14;;;;;;;;;2.00;1.25;;;;;19.60;59.25;101673.00;4914214;29;8848;-67
2022/08/20 06:17:40;;;;;;;;;1.25;1.25;;;;;19.64;59.04;101679.69;4910555;29;8872;-67
2022/08/20 06:20:08;;;;;;;;;3.00;3.00;;;;;19.69;58.78;101672.50;4911786;29;8844;-66
2022/08/20 06:22:35;;;;;;;;;0.00;0.00;;;;;19.73;58.63;101679.16;4910769;29;8903;-66
2022/08/20 06:25:02;;;;;;;;;1.00;0.00;;;;;19.79;58.36;101674.63;4912214;29;8879;-67
2022/08/20 06:27:30;;;;;;;;;1.00;0.00;;;;;19.85;58.08;101675.56;4908173;29;9569;-67
2022/08/20 06:29:56;;;;;;;;;0.25;0.25;;;;;19.88;58.39;101675.13;4911798;29;8841;-67
2022/08/20 06:32:23;;;;;;;;;4.00;2.00;;;;;19.90;58.41;101675.72;4906622;29;8859;-67
2022/08/20 06:35:03;;;;;;;;;1.75;1.75;;;;;19.91;58.64;101674.66;4897099;29;9545;-67
2022/08/20 06:37:30;;;;;;;;;1.75;1.75;;;;;19.92;58.14;101673.56;4915489;29;8853;-67
2022/08/20 06:40:08;;;;;;;;;1.75;1.75;;;;;19.90;57.32;101679.28;4912915;29;8959;-67
2022/08/20 06:42:35;;;;;;;;;2.75;2.75;;;;;19.89;56.43;101672.16;4913007;29;8833;-66
2022/08/20 06:45:04;;;;;;;;;4.00;2.25;;;;;19.90;55.38;101682.03;4912972;29;8878;-67
2022/08/20 06:47:31;;;;;;;;;1.25;0.75;;;;;19.92;54.76;101679.03;4913039;29;8841;-66
2022/08/20 06:49:58;;;;;;;;;1.75;1.75;;;;;20.00;55.76;101684.16;4909089;29;8824;-66
2022/08/20 06:52:24;;;;;;;;;2.75;2.75;;;;;20.00;54.74;101676.78;4915611;29;8983;-66
2022/08/20 06:55:11;;;;;;;;;0.50;0.50;;;;;20.08;55.15;101686.53;4908884;29;8897;-66
2022/08/20 06:57:37;;;;;;;;;1.00;1.00;;;;;20.12;55.54;101690.47;4909208;29;8947;-67
2022/08/20 07:00:07;;;;;;;;;1.00;1.00;;;;;20.13;55.24;101689.38;4906844;29;8878;-67
2022/08/20 07:02:34;;;;;;;;;1.00;1.00;;;;;20.10;54.74;101681.69;4909616;29;8967;-68
2022/08/20 07:05:03;;;;;;;;;1.25;1.00;;;;;20.09;54.36;101682.72;4897649;29;8848;-66
2022/08/20 07:07:31;;;;;;;;;1.00;1.00;;;;;20.12;54.32;101679.53;4911050;29;9652;-67
2022/08/20 07:10:03;;;;;;;;;1.25;1.25;;;;;20.13;53.85;101680.34;4915085;29;8951;-67
2022/08/20 07:12:29;;;;;;;;;1.50;1.50;;;;;20.13;53.69;101686.66;4910197;29;8851;-67
2022/08/20 07:14:56;;;;;;;;;1.00;1.00;;;;;20.14;53.20;101687.50;4903258;29;8969;-67
2022/08/20 07:17:22;;;;;;;;;0.00;0.00;;;;;20.19;53.52;101693.09;4907965;29;8844;-67
2022/08/20 07:19:49;;;;;;;;;0.00;0.00;;;;;20.23;53.71;101695.09;4911320;29;8905;-66
2022/08/20 07:22:16;;;;;;;;;3.00;1.25;;;;;20.28;53.96;101697.13;4902551;29;8847;-67
2022/08/20 07:24:43;;;;;;;;;1.00;1.00;;;;;20.27;52.62;101702.84;4916226;29;8879;-68
2022/08/20 07:27:19;;;;;;;;;1.25;1.25;;;;;20.24;52.24;101696.75;4900689;29;8972;-67
2022/08/20 07:32:33;;;;;;;;;1.25;1.25;;;;;20.33;52.40;101694.50;4915506;29;8875;-67
2022/08/20 07:35:06;;;;;;;;;0.50;0.50;;;;;20.38;52.78;101694.63;4906457;29;8866;-67
2022/08/20 07:37:37;;;;;;;;;1.50;1.00;;;;;20.44;52.49;101701.03;4909123;29;9774;-67
2022/08/20 07:40:06;;;;;;;;;1.00;0.50;;;;;20.43;51.25;101704.84;4915708;29;8851;-67
2022/08/20 07:42:33;;;;;;;;;0.75;0.75;;;;;20.44;50.63;101707.34;4903589;29;8936;-67
2022/08/20 07:44:59;;;;;;;;;1.00;0.25;;;;;20.46;50.57;101705.22;4907678;29;9005;-67
2022/08/20 07:47:26;;;;;;;;;0.00;0.00;;;;;20.54;51.20;101715.00;4898581;29;8852;-67
2022/08/20 07:49:52;;;;;;;;;1.25;1.00;;;;;20.52;49.81;101716.28;4913632;29;8959;-67
2022/08/20 07:52:19;;;;;;;;;1.00;1.00;;;;;20.49;49.38;101714.84;4906801;29;8832;-67
2022/08/20 07:54:45;;;;;;;;;1.00;1.00;;;;;20.49;49.27;101714.84;4906611;29;8833;-67
2022/08/20 07:57:11;;;;;;;;;1.50;1.50;;;;;20.54;49.12;101720.47;4902884;29;8927;-67
2022/08/20 07:59:38;;;;;;;;;1.00;1.00;;;;;20.58;48.54;101720.78;4905509;29;8831;-67
2022/08/20 08:02:05;;;;;;;;;2.00;1.00;;;;;20.65;49.08;101721.50;4902905;29;8851;-66
2022/08/20 08:04:31;;;;;;;;;1.00;1.00;;;;;20.66;47.47;101725.88;4904620;29;8852;-66
2022/08/20 08:06:59;;;;;;;;;3.50;2.50;;;;;20.66;47.88;101723.16;4907714;29;8844;-66
2022/08/20 08:09:27;;;;;;;;;0.25;0.25;;;;;20.72;48.36;101725.78;4915428;29;8959;-66
2022/08/20 08:11:56;;;;;;;;;1.00;1.00;;;;;20.79;48.76;101724.84;4904395;29;8993;-66
2022/08/20 08:14:28;;;;;;;;;2.00;2.00;;;;;20.83;48.41;101720.53;4902368;29;8851;-66
2022/08/20 08:16:58;;;;;;;;;0.50;0.50;;;;;20.86;47.55;101729.06;4910443;29;8904;-66
2022/08/20 08:19:32;;;;;;;;;1.00;1.00;;;;;20.86;45.18;101729.06;4897067;29;8891;-67
2022/08/20 08:21:59;;;;;;;;;0.75;0.75;;;;;20.86;44.60;101729.06;4910581;29;8837;-67
2022/08/20 08:24:25;;;;;;;;;0.00;0.00;;;;;20.90;44.46;101727.53;4901659;29;8849;-66
2022/08/20 08:26:54;;;;;;;;;3.00;1.00;;;;;20.95;44.92;101726.81;4901399;29;8965;-66
2022/08/20 08:29:20;;;;;;;;;2.25;2.25;;;;;20.96;45.35;101732.03;4906474;29;8998;-66
2022/08/20 08:31:46;;;;;;;;;1.50;1.50;;;;;20.98;44.58;101720.84;4901932;29;8922;-67
2022/08/20 08:34:13;;;;;;;;;1.00;1.00;;;;;21.03;44.43;101731.09;4905318;29;8978;-68
2022/08/20 08:36:42;;;;;;;;;3.50;3.50;;;;;21.03;44.13;101729.16;4909860;29;8860;-67
2022/08/20 08:39:09;;;;;;;;;2.25;2.25;;;;;21.03;44.12;101731.09;4899890;29;9666;-67
2022/08/20 08:41:46;;;;;;;;;2.75;1.25;;;;;21.02;44.90;101732.13;4904964;29;8853;-67
2022/08/20 08:44:28;;;;;;;;;5.25;2.50;;;;;20.98;44.93;101735.38;4907828;29;8884;-67
2022/08/20 08:47:20;;;;;;;;;3.00;2.00;;;;;21.04;44.77;101735.47;4905696;29;9592;-67
2022/08/20 08:49:47;;;;;;;;;1.00;1.00;;;;;21.10;44.93;101729.00;4902723;29;8853;-67
2022/08/20 08:52:21;;;;;;;;;3.00;1.00;;;;;21.14;45.21;101733.75;4905988;29;8840;-67
2022/08/20 08:54:52;;;;;;;;;0.00;0.00;;;;;21.16;45.05;101737.09;4908813;29;8848;-67
2022/08/20 08:57:18;;;;;;;;;3.00;1.00;;;;;21.19;46.21;101738.53;4902819;29;8876;-67
2022/08/20 08:59:49;;;;;;;;;1.00;1.00;;;;;21.24;46.73;101742.19;4906176;29;8844;-67
2022/08/20 09:02:29;;;;;;;;;2.00;2.00;;;;;21.23;45.43;101740.53;4905585;29;8844;-67
2022/08/20 09:05:00;;;;;;;;;3.00;1.00;;;;;21.24;45.27;101742.19;4898119;29;9625;-67
2022/08/20 09:07:31;;;;;;;;;1.00;1.00;;;;;21.28;45.79;101745.28;4907149;29;8859;-68
2022/08/20 09:10:00;;;;;;;;;2.00;1.25;;;;;21.31;45.13;101743.94;4903292;29;8868;-67
2022/08/20 09:12:26;;;;;;;;;0.50;0.50;;;;;21.36;43.39;101747.66;4903078;29;8863;-68
2022/08/20 09:14:53;;;;;;;;;0.00;0.00;;;;;21.38;42.26;101750.16;4903134;29;8848;-67
2022/08/20 09:17:21;;;;;;;;;2.25;1.00;;;;;21.44;42.95;101744.53;4903391;29;8843;-67
2022/08/20 09:19:50;;;;;;;;;1.25;0.75;;;;;21.49;43.49;101738.31;4895452;29;8986;-67
2022/08/20 09:22:21;;;;;;;;;1.50;1.25;;;;;21.52;43.50;101743.31;4893994;29;8855;-67
2022/08/20 09:24:49;;;;;;;;;1.00;1.00;;;;;21.56;42.61;101749.13;4894443;29;8867;-67
2022/08/20 09:27:15;;;;;;;;;2.00;0.25;;;;;21.59;43.36;101744.00;4903070;29;8945;-67
2022/08/20 09:29:42;;;;;;;;;0.75;0.75;;;;;21.64;43.88;101741.34;4904414;29;8844;-68
2022/08/20 09:32:16;;;;;;;;;1.75;1.00;;;;;21.68;43.96;101736.22;4902154;29;8930;-67
2022/08/20 09:34:45;;;;;;;;;1.00;1.00;;;;;21.72;44.12;101734.63;4895153;29;8873;-68
2022/08/20 09:37:13;;;;;;;;;2.25;1.00;;;;;21.73;44.05;101733.53;4893816;29;8965;-67
2022/08/20 09:39:40;;;;;;;;;2.50;2.00;;;;;21.70;44.17;101739.50;4895161;29;8841;-67
2022/08/20 09:42:09;;;;;;;;;2.25;2.25;;;;;21.75;44.81;101742.34;4899246;29;8833;-70
2022/08/20 09:44:35;;;;;;;;;1.25;1.25;;;;;21.78;45.29;101739.09;4906251;29;8871;-68
2022/08/20 09:47:02;;;;;;;;;2.00;2.00;;;;;21.84;45.59;101742.78;4905175;29;8864;-68
2022/08/20 09:49:28;;;;;;;;;2.75;2.75;;;;;21.85;44.72;101749.94;4914042;29;8870;-68
2022/08/20 09:51:56;;;;;;;;;3.50;2.00;;;;;21.86;44.90;101748.84;4897130;29;9006;-68
2022/08/20 09:54:26;;;;;;;;;2.00;1.00;;;;;21.89;44.74;101740.97;4913684;29;8883;-68
2022/08/20 09:56:58;;;;;;;;;1.50;1.50;;;;;21.84;45.16;101734.56;4907159;29;8955;-68
2022/08/20 09:59:25;;;;;;;;;2.50;2.00;;;;;21.69;46.16;101738.69;4904846;29;9645;-68
2022/08/20 10:01:51;;;;;;;;;3.50;3.00;;;;;21.60;46.13;101742.91;4908545;29;8844;-67
2022/08/20 10:04:18;;;;;;;;;1.75;1.75;;;;;21.58;46.96;101739.56;4913906;29;8844;-68
2022/08/20 10:06:44;;;;;;;;;3.50;3.00;;;;;21.55;46.80;101733.75;4913346;29;8840;-67
2022/08/20 10:09:11;;;;;;;;;2.50;2.50;;;;;21.52;46.36;101734.25;4913785;29;8955;-66
2022/08/20 10:11:37;;;;;;;;;2.00;2.00;;;;;21.54;46.38;101732.09;4913493;29;8868;-67
2022/08/20 10:14:04;;;;;;;;;2.00;1.50;;;;;21.57;46.30;101737.91;4907726;29;8845;-70
2022/08/20 10:16:30;;;;;;;;;3.00;1.75;;;;;21.57;46.48;101737.91;4916988;29;8868;-66
2022/08/20 10:18:57;;;;;;;;;3.00;2.00;;;;;21.55;46.19;101739.22;4917106;29;9666;-67
2022/08/20 10:21:23;;;;;;;;;2.00;2.00;;;;;21.55;46.44;101740.06;4917009;29;8848;-67
2022/08/20 10:23:50;;;;;;;;;1.00;1.00;;;;;21.57;46.25;101737.09;4917255;29;8864;-68
2022/08/20 10:26:16;;;;;;;;;2.00;2.00;;;;;21.59;45.74;101738.53;4914985;29;8848;-66
2022/08/20 10:28:43;;;;;;;;;2.50;2.50;;;;;21.61;45.33;101739.09;4906094;29;8938;-66
2022/08/20 10:31:11;;;;;;;;;2.50;2.50;;;;;21.54;44.97;101740.31;4914411;29;8894;-66
2022/08/20 10:33:39;;;;;;;;;2.00;2.00;;;;;21.50;44.97;101739.97;4915828;29;8852;-66
2022/08/20 10:36:07;;;;;;;;;1.00;1.00;;;;;21.52;44.74;101742.47;4907664;29;8867;-67
2022/08/20 10:38:33;;;;;;;;;1.00;1.00;;;;;21.56;45.24;101738.19;4897804;29;8843;-66
2022/08/20 10:41:00;;;;;;;;;1.00;1.00;;;;;21.58;45.46;101736.84;4898223;29;8855;-66
2022/08/20 10:43:27;;;;;;;;;1.50;0.75;;;;;21.60;45.74;101734.69;4897947;29;8990;-67
2022/08/20 10:45:53;;;;;;;;;1.00;1.00;;;;;21.59;45.80;101734.91;4897951;29;8871;-66
2022/08/20 10:48:20;;;;;;;;;2.00;2.00;;;;;21.61;45.21;101736.34;4902225;29;8835;-67
2022/08/20 10:50:48;;;;;;;;;1.00;1.00;;;;;21.67;45.10;101740.84;4906024;29;8840;-67
2022/08/20 10:53:14;;;;;;;;;3.00;1.00;;;;;21.76;44.58;101726.75;4906641;29;9589;-67
2022/08/20 10:55:41;;;;;;;;;1.00;1.00;;;;;21.80;44.42;101736.97;4908642;29;8912;-67
2022/08/20 10:58:08;;;;;;;;;2.75;2.75;;;;;21.90;44.61;101736.31;4900822;29;8851;-67
2022/08/20 11:00:37;;;;;;;;;2.00;2.00;;;;;21.96;43.94;101727.94;4906225;29;8841;-67
2022/08/20 11:03:04;;;;;;;;;1.50;1.50;;;;;22.01;43.46;101716.22;4905516;29;8895;-67
2022/08/20 11:05:31;;;;;;;;;1.00;1.00;;;;;22.12;43.65;101718.03;4902800;29;8887;-68
2022/08/20 11:07:58;;;;;;;;;0.00;0.00;;;;;22.24;43.56;101722.63;4902037;29;9116;-66
2022/08/20 11:10:27;;;;;;;;;1.00;1.00;;;;;22.34;43.32;101722.78;4908622;29;8848;-66
2022/08/20 11:12:54;;;;;;;;;0.00;0.00;;;;;22.40;43.19;101722.63;4915540;29;9577;-66
2022/08/20 11:15:20;;;;;;;;;2.00;2.00;;;;;22.49;42.75;101720.28;4911014;29;8886;-67
2022/08/20 11:17:47;;;;;;;;;1.75;1.75;;;;;22.59;42.99;101720.41;4900815;29;8978;-66
2022/08/20 11:20:16;;;;;;;;;2.50;2.00;;;;;22.58;42.67;101728.91;4905059;29;8906;-67
2022/08/20 11:22:43;;;;;;;;;2.00;1.00;;;;;22.63;42.41;101737.19;4905183;29;8855;-67
2022/08/20 11:25:09;;;;;;;;;0.00;0.00;;;;;22.62;42.71;101733.63;4914263;29;8864;-66
2022/08/20 11:27:47;;;;;;;;;2.00;2.00;;;;;22.57;41.96;101738.22;4902011;29;8850;-67
2022/08/20 11:30:21;;;;;;;;;1.50;1.50;;;;;22.57;41.89;101744.53;4900347;29;8880;-66
2022/08/20 11:32:47;;;;;;;;;2.00;2.00;;;;;22.55;42.23;101738.44;4906727;29;9672;-67
2022/08/20 11:35:14;;;;;;;;;1.00;1.00;;;;;22.53;41.87;101735.16;4904821;29;8855;-66
2022/08/20 11:38:02;;;;;;;;;1.00;1.00;;;;;22.46;42.16;101737.22;4896723;29;8839;-67
2022/08/20 11:40:29;;;;;;;;;2.00;2.00;;;;;22.40;42.19;101733.59;4896780;29;8843;-68
2022/08/20 11:42:56;;;;;;;;;1.00;1.00;;;;;22.43;42.82;101732.25;4897039;29;8969;-66
2022/08/20 11:45:45;;;;;;;;;3.00;1.25;;;;;22.47;42.84;101733.41;4901063;29;9010;-66
2022/08/20 11:48:12;;;;;;;;;2.00;2.00;;;;;22.42;42.53;101727.84;4911781;29;9701;-66